createdAt,value
2023-05-11T00:00:13.055Z,18.30
2023-05-11T00:02:42.158Z,18.40
2023-05-11T00:05:11.450Z,18.20
2023-05-11T00:07:40.486Z,18.20
2023-05-11T00:10:10.511Z,18.10
2023-05-11T00:12:39.812Z,18.10
2023-05-11T00:15:09.640Z,18.00
2023-05-11T00:17:39.990Z,18.10
2023-05-11T00:20:10.212Z,18.10
2023-05-11T00:22:39.462Z,18.20
2023-05-11T00:25:09.194Z,18.10
2023-05-11T00:27:38.378Z,18.20
2023-05-11T00:30:09.240Z,18.20
2023-05-11T00:32:39.603Z,18.30
2023-05-11T00:35:09.768Z,18.30
2023-05-11T00:37:38.993Z,18.30
2023-05-11T00:40:09.685Z,18.20
2023-05-11T00:42:38.744Z,18.30
2023-05-11T00:45:09.242Z,18.40
2023-05-11T00:47:39.675Z,18.40
2023-05-11T00:50:10.050Z,18.20
2023-05-11T00:52:39.360Z,18.20
2023-05-11T00:55:09.090Z,18.20
2023-05-11T00:57:39.682Z,18.20
2023-05-11T01:00:09.833Z,18.20
2023-05-11T01:02:41.115Z,18.30
2023-05-11T01:05:10.762Z,18.30
2023-05-11T01:07:49.175Z,18.10
2023-05-11T01:10:25.400Z,18.00
2023-05-11T01:13:03.234Z,17.90
2023-05-11T01:15:40.162Z,17.70
2023-05-11T01:18:21.283Z,17.50
2023-05-11T01:20:54.630Z,17.50
2023-05-11T01:24:02.188Z,17.40
2023-05-11T01:26:50.643Z,17.50
2023-05-11T01:29:49.949Z,17.50
2023-05-11T01:32:23.574Z,17.40
2023-05-11T01:35:02.723Z,17.20
2023-05-11T01:37:34.425Z,17.10
2023-05-11T01:40:08.035Z,17.20
2023-05-11T01:42:43.209Z,17.20
2023-05-11T01:45:14.555Z,17.40
2023-05-11T01:47:49.559Z,17.50
2023-05-11T01:50:22.112Z,17.70
2023-05-11T01:52:52.382Z,17.80
2023-05-11T01:55:24.858Z,17.70
2023-05-11T01:57:56.003Z,17.80
2023-05-11T02:00:26.596Z,17.60
2023-05-11T02:02:57.877Z,17.40
2023-05-11T02:05:28.432Z,17.50
2023-05-11T02:07:59.904Z,17.50
2023-05-11T02:10:30.176Z,17.50
2023-05-11T02:13:00.991Z,17.50
2023-05-11T02:15:30.876Z,17.40
2023-05-11T02:18:02.278Z,17.40
2023-05-11T02:20:31.997Z,17.20
2023-05-11T02:23:02.509Z,17.20
2023-05-11T02:25:33.052Z,17.20
2023-05-11T02:28:01.987Z,17.10
2023-05-11T02:30:34.023Z,17.20
2023-05-11T02:33:09.622Z,17.30
2023-05-11T02:35:43.527Z,17.20
2023-05-11T02:38:15.533Z,17.30
2023-05-11T02:40:50.618Z,17.30
2023-05-11T02:43:25.797Z,17.20
2023-05-11T02:46:04.145Z,17.20
2023-05-11T02:48:40.309Z,17.10
2023-05-11T02:51:13.805Z,17.10
2023-05-11T02:53:50.166Z,17.00
2023-05-11T02:56:20.553Z,17.00
2023-05-11T02:58:50.919Z,17.00
2023-05-11T03:01:25.555Z,17.00
2023-05-11T03:03:56.897Z,17.10
2023-05-11T03:06:27.896Z,17.10
2023-05-11T03:08:57.037Z,16.90
2023-05-11T03:11:28.637Z,17.10
2023-05-11T03:13:58.982Z,17.10
2023-05-11T03:16:28.751Z,17.00
2023-05-11T03:19:00.620Z,17.00
2023-05-11T03:21:29.853Z,17.00
2023-05-11T03:23:59.712Z,17.10
2023-05-11T03:26:31.371Z,17.20
2023-05-11T03:29:02.517Z,17.40
2023-05-11T03:31:31.628Z,17.20
2023-05-11T03:34:03.495Z,17.10
2023-05-11T03:36:38.199Z,17.10
2023-05-11T03:39:09.926Z,17.10
2023-05-11T03:41:42.136Z,17.10
2023-05-11T03:44:14.110Z,17.10
2023-05-11T03:46:47.961Z,17.10
2023-05-11T03:49:20.091Z,17.00
2023-05-11T03:51:49.948Z,16.90
2023-05-11T03:54:18.898Z,16.80
2023-05-11T03:56:48.153Z,16.80
2023-05-11T03:59:17.575Z,16.90
2023-05-11T04:01:46.877Z,16.90
2023-05-11T04:04:16.284Z,16.80
2023-05-11T04:06:46.884Z,16.80
2023-05-11T04:09:19.704Z,16.80
2023-05-11T04:11:49.015Z,16.70
2023-05-11T04:14:18.607Z,16.60
2023-05-11T04:16:47.811Z,16.60
2023-05-11T04:19:17.066Z,16.60
2023-05-11T04:21:48.502Z,16.70
2023-05-11T04:24:17.514Z,16.70
2023-05-11T04:26:48.027Z,16.70
2023-05-11T04:29:17.182Z,16.70
2023-05-11T04:31:46.118Z,16.50
2023-05-11T04:34:15.482Z,16.40
2023-05-11T04:36:44.807Z,16.30
2023-05-11T04:39:16.154Z,16.40
2023-05-11T04:41:45.579Z,16.50
2023-05-11T04:44:14.490Z,16.50
2023-05-11T04:46:43.677Z,16.60
2023-05-11T04:49:12.633Z,16.60
2023-05-11T04:51:42.227Z,16.50
2023-05-11T04:54:11.747Z,16.50
2023-05-11T04:56:42.477Z,16.40
2023-05-11T04:59:11.852Z,16.30
2023-05-11T05:01:40.775Z,16.20
2023-05-11T05:04:10.324Z,16.20
2023-05-11T05:06:40.862Z,16.20
2023-05-11T05:09:10.377Z,16.20
2023-05-11T05:11:39.642Z,16.30
2023-05-11T05:14:09.934Z,16.30
2023-05-11T05:16:38.953Z,16.20
2023-05-11T05:19:09.998Z,16.30
2023-05-11T05:21:40.783Z,16.40
2023-05-11T05:24:11.485Z,16.50
2023-05-11T05:26:41.348Z,16.60
2023-05-11T05:29:14.031Z,16.70
2023-05-11T05:31:43.134Z,16.70
2023-05-11T05:34:14.692Z,16.60
2023-05-11T05:36:45.981Z,16.60
2023-05-11T05:39:15.633Z,16.60
2023-05-11T05:41:45.270Z,16.50
2023-05-11T05:44:16.511Z,16.50
2023-05-11T05:46:46.564Z,16.60
2023-05-11T05:49:15.639Z,16.70
2023-05-11T05:51:44.908Z,16.80
2023-05-11T05:54:14.907Z,16.80
2023-05-11T05:56:44.947Z,16.80
2023-05-11T05:59:16.093Z,16.90
2023-05-11T06:01:46.498Z,16.70
2023-05-11T06:04:17.333Z,16.70
2023-05-11T06:06:47.549Z,16.70
2023-05-11T06:09:16.747Z,16.70
2023-05-11T06:11:46.003Z,16.70
2023-05-11T06:14:16.537Z,16.80
2023-05-11T06:16:47.087Z,16.80
2023-05-11T06:19:16.575Z,16.60
2023-05-11T06:21:46.666Z,16.50
2023-05-11T06:24:16.975Z,16.70
2023-05-11T06:26:47.375Z,16.60
2023-05-11T06:29:22.396Z,16.60
2023-05-11T06:31:53.295Z,16.70
2023-05-11T06:34:23.567Z,16.70
2023-05-11T06:36:53.008Z,16.60
2023-05-11T06:39:24.071Z,16.90
2023-05-11T06:41:56.288Z,16.80
2023-05-11T06:44:28.001Z,16.90
2023-05-11T06:46:57.556Z,16.80
2023-05-11T06:49:26.786Z,16.60
2023-05-11T06:51:56.099Z,16.60
2023-05-11T06:54:25.191Z,16.70
2023-05-11T06:56:54.329Z,17.10
2023-05-11T06:59:23.914Z,17.10
2023-05-11T07:01:54.572Z,16.90
2023-05-11T07:04:24.437Z,16.70
2023-05-11T07:06:53.505Z,16.70
2023-05-11T07:09:23.186Z,16.60
2023-05-11T07:11:52.926Z,16.70
2023-05-11T07:14:22.463Z,16.80
2023-05-11T07:16:53.077Z,16.90
2023-05-11T07:19:23.859Z,16.90
2023-05-11T07:21:52.905Z,17.00
2023-05-11T07:24:21.945Z,17.10
2023-05-11T07:26:52.225Z,17.00
2023-05-11T07:29:21.306Z,17.20
2023-05-11T07:31:50.511Z,17.40
2023-05-11T07:34:19.883Z,17.20
2023-05-11T07:36:50.600Z,17.20
2023-05-11T07:39:19.602Z,17.40
2023-05-11T07:41:48.788Z,17.30
2023-05-11T07:44:18.311Z,17.20
2023-05-11T07:46:47.429Z,17.30
2023-05-11T07:49:20.793Z,17.30
2023-05-11T07:51:58.628Z,17.30
2023-05-11T07:54:27.886Z,17.70
2023-05-11T07:56:57.103Z,17.90
2023-05-11T07:59:26.093Z,17.80
2023-05-11T08:01:55.843Z,18.00
2023-05-11T08:04:25.420Z,18.00
2023-05-11T08:06:54.617Z,17.90
2023-05-11T08:09:26.036Z,17.90
2023-05-11T08:11:56.709Z,17.90
2023-05-11T08:14:27.340Z,17.90
2023-05-11T08:16:56.701Z,17.90
2023-05-11T08:19:25.583Z,17.80
2023-05-11T08:21:54.878Z,17.70
2023-05-11T08:24:25.423Z,18.10
2023-05-11T08:26:54.452Z,18.10
2023-05-11T08:29:23.654Z,18.10
2023-05-11T08:31:53.203Z,18.30
2023-05-11T08:34:22.560Z,18.40
2023-05-11T08:36:53.162Z,18.00
2023-05-11T08:39:43.257Z,18.10
2023-05-11T08:42:17.103Z,18.40
2023-05-11T08:44:46.431Z,18.70
2023-05-11T08:49:48.718Z,18.60
2023-05-11T08:52:19.607Z,18.40
2023-05-11T08:54:49.221Z,18.50
2023-05-11T08:57:20.943Z,18.50
2023-05-11T08:59:50.724Z,18.60
2023-05-11T09:02:21.054Z,18.70
2023-05-11T09:04:52.295Z,18.30
2023-05-11T09:07:21.769Z,18.10
2023-05-11T09:09:51.510Z,18.00
2023-05-11T09:12:26.159Z,18.40
2023-05-11T09:17:30.680Z,17.90
2023-05-11T09:20:01.719Z,17.90
2023-05-11T09:22:36.775Z,18.10
2023-05-11T09:25:06.971Z,18.10
2023-05-11T09:27:43.157Z,18.30
2023-05-11T09:30:14.350Z,18.30
2023-05-11T09:32:54.699Z,18.20
2023-05-11T09:35:26.168Z,18.50
2023-05-11T09:38:04.956Z,18.30
2023-05-11T09:40:35.717Z,18.40
2023-05-11T09:43:18.622Z,18.40
2023-05-11T09:45:48.994Z,18.30
2023-05-11T09:48:29.597Z,17.90
2023-05-11T09:51:04.550Z,18.20
2023-05-11T09:53:43.558Z,18.10
2023-05-11T09:56:14.200Z,18.50
2023-05-11T09:58:54.440Z,18.20
2023-05-11T10:01:32.604Z,18.40
2023-05-11T10:04:21.539Z,18.60
2023-05-11T10:06:54.429Z,18.50
2023-05-11T10:09:26.576Z,18.00
2023-05-11T10:11:56.940Z,18.30
2023-05-11T10:14:29.930Z,18.70
2023-05-11T10:17:00.198Z,18.80
2023-05-11T10:19:29.515Z,19.10
2023-05-11T10:21:59.004Z,18.70
2023-05-11T10:24:29.028Z,18.60
2023-05-11T10:26:59.176Z,18.90
2023-05-11T10:29:30.937Z,19.00
2023-05-11T10:32:00.985Z,19.60
2023-05-11T10:34:30.494Z,19.70
2023-05-11T10:37:02.328Z,19.90
2023-05-11T10:39:32.441Z,19.80
2023-05-11T10:42:23.479Z,19.40
2023-05-11T10:45:06.996Z,19.60
2023-05-11T10:48:14.805Z,20.00
2023-05-11T10:50:56.506Z,20.20
2023-05-11T10:53:48.402Z,20.00
2023-05-11T10:56:40.039Z,20.40
2023-05-11T10:59:27.562Z,20.80
2023-05-11T11:02:02.139Z,20.70
2023-05-11T11:04:44.669Z,20.50
2023-05-11T11:07:17.522Z,20.00
2023-05-11T11:09:54.920Z,19.90
2023-05-11T11:12:27.049Z,20.30
2023-05-11T11:14:58.680Z,20.50
2023-05-11T11:17:32.128Z,20.70
2023-05-11T11:20:02.669Z,20.70
2023-05-11T11:22:51.225Z,20.60
2023-05-11T11:25:54.759Z,20.80
2023-05-11T11:28:24.879Z,20.90
2023-05-11T11:31:27.782Z,21.10
2023-05-11T11:34:01.228Z,21.10
2023-05-11T11:37:06.918Z,20.80
2023-05-11T11:39:51.198Z,20.90
2023-05-11T11:42:33.623Z,20.80
2023-05-11T11:45:31.216Z,20.60
2023-05-11T11:48:14.621Z,20.50
2023-05-11T11:50:49.988Z,20.90
2023-05-11T11:54:02.021Z,20.80
2023-05-11T11:56:45.062Z,21.00
2023-05-11T11:59:17.715Z,21.10
2023-05-11T12:01:47.228Z,21.50
2023-05-11T12:04:42.341Z,21.30
2023-05-11T12:07:14.351Z,21.10
2023-05-11T12:09:46.756Z,20.80
2023-05-11T12:12:19.326Z,20.50
2023-05-11T12:14:50.631Z,20.80
2023-05-11T12:17:30.994Z,20.70
2023-05-11T12:20:15.838Z,20.70
2023-05-11T12:22:47.316Z,20.60
2023-05-11T12:25:18.141Z,20.70
2023-05-11T12:27:50.831Z,21.00
2023-05-11T12:30:25.236Z,21.30
2023-05-11T12:32:57.744Z,21.20
2023-05-11T12:35:28.918Z,21.30
2023-05-11T12:38:00.914Z,20.80
2023-05-11T12:40:30.418Z,21.10
2023-05-11T12:43:00.598Z,20.70
2023-05-11T12:45:30.806Z,20.90
2023-05-11T12:48:01.133Z,21.20
2023-05-11T12:50:30.448Z,20.60
2023-05-11T12:56:01.662Z,20.90
2023-05-11T12:58:38.340Z,20.90
2023-05-11T13:01:09.615Z,21.30
2023-05-11T13:03:39.091Z,21.20
2023-05-11T13:06:09.210Z,21.40
2023-05-11T13:08:39.611Z,21.40
2023-05-11T13:11:24.836Z,21.40
2023-05-11T13:13:55.351Z,20.90
2023-05-11T13:16:28.752Z,20.70
2023-05-11T13:19:02.251Z,20.80
2023-05-11T13:21:33.622Z,20.80
2023-05-11T13:24:04.218Z,21.20
2023-05-11T13:26:34.965Z,21.40
2023-05-11T13:29:10.744Z,21.60
2023-05-11T13:31:47.139Z,21.60
2023-05-11T13:34:16.817Z,21.60
2023-05-11T13:36:46.240Z,21.40
2023-05-11T13:39:15.836Z,21.30
2023-05-11T13:41:47.056Z,21.50
2023-05-11T13:44:16.478Z,22.30
2023-05-11T13:46:45.539Z,22.30
2023-05-11T13:49:14.672Z,22.60
2023-05-11T13:51:43.941Z,22.70
2023-05-11T13:54:13.360Z,22.80
2023-05-11T13:56:42.158Z,23.10
2023-05-11T13:59:12.732Z,23.40
2023-05-11T14:01:42.443Z,23.00
2023-05-11T14:04:11.928Z,22.20
2023-05-11T14:06:42.130Z,22.40
2023-05-11T14:09:11.345Z,21.90
2023-05-11T14:11:40.636Z,22.20
2023-05-11T14:14:09.782Z,22.10
2023-05-11T14:16:40.188Z,22.40
2023-05-11T14:19:10.275Z,23.30
2023-05-11T14:21:39.584Z,23.20
2023-05-11T14:24:12.444Z,22.90
2023-05-11T14:26:42.149Z,23.00
2023-05-11T14:29:11.023Z,21.70
2023-05-11T14:31:42.014Z,21.50
2023-05-11T14:34:11.217Z,21.30
2023-05-11T14:36:40.573Z,21.60
2023-05-11T14:39:09.673Z,22.20
2023-05-11T14:41:39.046Z,22.10
2023-05-11T14:44:09.033Z,22.00
2023-05-11T14:46:38.191Z,21.80
2023-05-11T14:49:08.852Z,21.60
2023-05-11T14:51:39.526Z,21.60
2023-05-11T14:54:08.845Z,21.30
2023-05-11T14:56:37.912Z,21.00
2023-05-11T14:59:07.434Z,21.10
2023-05-11T15:01:36.299Z,20.70
2023-05-11T15:04:06.011Z,20.50
2023-05-11T15:06:36.549Z,20.50
2023-05-11T15:09:06.049Z,20.40
2023-05-11T15:11:37.460Z,20.40
2023-05-11T15:14:06.931Z,20.40
2023-05-11T15:16:35.966Z,20.20
2023-05-11T15:19:06.269Z,20.20
2023-05-11T15:21:37.010Z,20.40
2023-05-11T15:24:09.207Z,20.60
2023-05-11T15:26:40.067Z,20.30
2023-05-11T15:29:09.221Z,20.30
2023-05-11T15:31:38.539Z,20.50
2023-05-11T15:34:07.567Z,20.40
2023-05-11T15:36:38.025Z,20.30
2023-05-11T15:39:08.211Z,20.10
2023-05-11T15:41:37.292Z,20.10
2023-05-11T15:44:06.877Z,20.40
2023-05-11T15:46:36.650Z,20.50
2023-05-11T15:49:06.287Z,19.90
2023-05-11T15:51:35.669Z,19.80
2023-05-11T15:54:06.515Z,19.90
2023-05-11T15:56:36.685Z,20.00
2023-05-11T15:59:05.663Z,20.00
2023-05-11T16:01:34.967Z,19.50
2023-05-11T16:04:04.219Z,19.30
2023-05-11T16:06:34.943Z,19.40
2023-05-11T16:09:06.004Z,19.40
2023-05-11T16:11:35.125Z,19.30
2023-05-11T16:14:04.268Z,19.40
2023-05-11T16:16:33.724Z,19.60
2023-05-11T16:19:02.928Z,19.70
2023-05-11T16:21:33.224Z,19.60
2023-05-11T16:24:02.301Z,19.70
2023-05-11T16:26:33.209Z,19.80
2023-05-11T16:29:02.620Z,19.70
2023-05-11T16:31:31.481Z,19.80
2023-05-11T16:34:00.924Z,19.70
2023-05-11T16:36:30.907Z,19.60
2023-05-11T16:38:59.789Z,19.40
2023-05-11T16:41:29.306Z,19.30
2023-05-11T16:44:00.016Z,19.00
2023-05-11T16:46:29.492Z,18.90
2023-05-11T16:48:58.881Z,19.00
2023-05-11T16:51:28.321Z,19.00
2023-05-11T16:53:57.452Z,19.10
2023-05-11T16:56:26.939Z,19.10
2023-05-11T16:58:56.392Z,19.30
2023-05-11T17:04:20.646Z,19.10
2023-05-11T17:06:49.825Z,19.10
2023-05-11T17:09:18.726Z,18.90
2023-05-11T17:11:47.933Z,19.00
2023-05-11T17:14:17.272Z,18.80
2023-05-11T17:16:47.683Z,18.80
2023-05-11T17:19:17.035Z,18.70
2023-05-11T17:21:46.236Z,18.40
2023-05-11T17:24:15.359Z,18.50
2023-05-11T17:26:48.372Z,18.50
2023-05-11T17:29:18.025Z,18.40
2023-05-11T17:31:52.289Z,18.30
2023-05-11T17:34:23.808Z,18.50
2023-05-11T17:36:56.790Z,18.20
2023-05-11T17:39:25.893Z,18.40
2023-05-11T17:41:55.202Z,18.30
2023-05-11T17:44:24.512Z,18.50
2023-05-11T17:46:55.543Z,18.40
2023-05-11T17:49:24.430Z,18.40
2023-05-11T17:51:53.401Z,18.10
2023-05-11T17:54:22.922Z,18.10
2023-05-11T17:56:52.127Z,18.00
2023-05-11T17:59:21.871Z,18.00
2023-05-11T18:01:51.596Z,18.00
2023-05-11T18:04:22.207Z,18.10
2023-05-11T18:06:51.738Z,17.90
2023-05-11T18:09:20.757Z,18.00
2023-05-11T18:11:50.301Z,17.80
2023-05-11T18:14:19.548Z,17.80
2023-05-11T18:16:49.875Z,17.70
2023-05-11T18:19:19.272Z,17.80
2023-05-11T18:21:51.391Z,17.80
2023-05-11T18:24:21.175Z,17.90
2023-05-11T18:26:50.558Z,17.70
2023-05-11T18:29:22.049Z,17.80
2023-05-11T18:31:51.347Z,17.50
2023-05-11T18:34:20.460Z,17.70
2023-05-11T18:36:51.048Z,17.50
2023-05-11T18:39:20.583Z,17.40
2023-05-11T18:41:49.859Z,17.50
2023-05-11T18:44:19.400Z,17.70
2023-05-11T18:46:48.360Z,17.70
2023-05-11T18:49:18.047Z,17.50
2023-05-11T18:51:47.044Z,17.60
2023-05-11T18:54:17.935Z,17.70
2023-05-11T18:56:47.897Z,17.70
2023-05-11T18:59:17.408Z,17.80
2023-05-11T19:01:48.475Z,17.70
2023-05-11T19:04:20.153Z,17.50
2023-05-11T19:06:49.397Z,17.50
2023-05-11T19:09:20.490Z,17.50
2023-05-11T19:11:49.737Z,17.50
2023-05-11T19:14:18.996Z,17.50
2023-05-11T19:16:48.892Z,17.50
2023-05-11T19:19:18.184Z,17.50
2023-05-11T19:21:48.914Z,17.30
2023-05-11T19:24:19.506Z,17.40
2023-05-11T19:27:02.555Z,17.60
2023-05-11T19:29:35.995Z,17.90
2023-05-11T19:32:05.200Z,17.80
2023-05-11T19:34:36.431Z,18.00
2023-05-11T19:37:06.213Z,17.80
2023-05-11T19:39:36.559Z,17.80
2023-05-11T19:42:05.793Z,17.90
2023-05-11T19:44:37.958Z,17.80
2023-05-11T19:47:07.276Z,17.90
2023-05-11T19:49:36.345Z,17.80
2023-05-11T19:52:05.757Z,17.80
2023-05-11T19:54:37.058Z,17.80
2023-05-11T19:57:06.421Z,17.80
2023-05-11T19:59:35.196Z,17.70
2023-05-11T20:02:04.889Z,17.80
2023-05-11T20:04:33.786Z,17.60
2023-05-11T20:07:03.110Z,17.70
2023-05-11T20:09:32.386Z,17.80
2023-05-11T20:12:02.863Z,17.80
2023-05-11T20:14:32.116Z,17.80
2023-05-11T20:17:01.109Z,17.80
2023-05-11T20:19:30.109Z,17.60
2023-05-11T20:21:59.445Z,17.80
2023-05-11T20:24:28.755Z,17.80
2023-05-11T20:26:57.817Z,17.50
2023-05-11T20:29:28.420Z,17.40
2023-05-11T20:31:57.965Z,17.30
2023-05-11T20:34:26.956Z,17.20
2023-05-11T20:36:56.072Z,17.20
2023-05-11T20:39:25.208Z,17.10
2023-05-11T20:41:54.306Z,17.20
2023-05-11T20:44:23.296Z,17.20
2023-05-11T20:46:53.824Z,17.00
2023-05-11T20:49:37.642Z,16.80
2023-05-11T20:52:08.752Z,16.70
2023-05-11T20:54:38.272Z,16.70
2023-05-11T20:57:08.362Z,16.40
2023-05-11T21:02:11.098Z,16.70
2023-05-11T21:04:40.241Z,16.70
2023-05-11T21:07:09.429Z,16.70
2023-05-11T21:09:38.329Z,16.70
2023-05-11T21:12:08.119Z,16.40
2023-05-11T21:14:37.210Z,16.60
2023-05-11T21:17:06.468Z,16.50
2023-05-11T21:19:36.893Z,16.50
2023-05-11T21:22:06.082Z,16.40
2023-05-11T21:24:37.701Z,16.60
2023-05-11T21:27:07.317Z,16.40
2023-05-11T21:29:36.188Z,16.30
2023-05-11T21:32:05.695Z,16.40
2023-05-11T21:34:34.633Z,16.40
2023-05-11T21:37:06.092Z,16.50
2023-05-11T21:39:35.151Z,16.40
2023-05-11T21:42:04.405Z,16.40
2023-05-11T21:44:33.791Z,16.30
2023-05-11T21:47:02.610Z,16.30
2023-05-11T21:49:31.561Z,16.40
2023-05-11T21:52:00.605Z,16.40
2023-05-11T21:54:31.575Z,16.30
2023-05-11T21:57:00.798Z,16.30
2023-05-11T21:59:29.741Z,16.50
2023-05-11T22:01:59.239Z,16.60
2023-05-11T22:04:28.341Z,16.40
2023-05-11T22:07:01.364Z,16.40
2023-05-11T22:09:32.931Z,16.50
2023-05-11T22:12:01.862Z,16.50
2023-05-11T22:14:31.487Z,16.50
2023-05-11T22:17:00.983Z,16.30
2023-05-11T22:19:30.301Z,16.30
2023-05-11T22:21:59.200Z,16.30
2023-05-11T22:24:28.422Z,16.30
2023-05-11T22:26:59.558Z,16.30
2023-05-11T22:29:28.796Z,16.30
2023-05-11T22:31:58.279Z,16.40
2023-05-11T22:34:27.294Z,16.30
2023-05-11T22:36:57.049Z,16.30
2023-05-11T22:39:26.203Z,16.10
2023-05-11T22:41:55.338Z,15.80
2023-05-11T22:44:25.718Z,15.80
2023-05-11T22:46:55.529Z,15.70
2023-05-11T22:49:24.474Z,15.80
2023-05-11T22:51:53.333Z,15.70
2023-05-11T22:54:22.758Z,15.60
2023-05-11T22:56:52.426Z,15.40
2023-05-11T22:59:21.360Z,15.20
2023-05-11T23:01:52.157Z,15.20
2023-05-11T23:04:20.977Z,15.10
2023-05-11T23:06:50.130Z,15.30
2023-05-11T23:09:19.592Z,15.30
2023-05-11T23:11:48.979Z,15.10
2023-05-11T23:14:18.044Z,15.00
2023-05-11T23:16:47.335Z,15.00
2023-05-11T23:19:17.758Z,15.10
2023-05-11T23:21:46.867Z,15.10
2023-05-11T23:24:15.771Z,15.20
2023-05-11T23:26:44.692Z,15.30
2023-05-11T23:29:13.741Z,15.40
2023-05-11T23:31:42.775Z,15.50
2023-05-11T23:34:12.149Z,15.50
2023-05-11T23:36:43.337Z,15.50
2023-05-11T23:39:12.640Z,15.50
2023-05-11T23:41:41.624Z,15.50
2023-05-11T23:44:10.674Z,15.60
2023-05-11T23:46:40.000Z,15.60
2023-05-11T23:49:09.078Z,15.70
2023-05-11T23:51:38.054Z,15.80
2023-05-11T23:54:08.879Z,15.80
2023-05-11T23:56:37.996Z,15.90
2023-05-11T23:59:07.131Z,15.60
